sensor_id;sensor_type;location;lat;lon;timestamp;temperature;humidity
27797;DHT22;15177;50.844;4.412;2023-12-20T00:02:04;8.10;99.90
27797;DHT22;15177;50.844;4.412;2023-12-20T00:04:30;8.10;99.90
27797;DHT22;15177;50.844;4.412;2023-12-20T00:06:58;8.10;99.90
27797;DHT22;15177;50.844;4.412;2023-12-20T00:09:27;8.00;99.90
27797;DHT22;15177;50.844;4.412;2023-12-20T00:11:55;7.90;99.90
27797;DHT22;15177;50.844;4.412;2023-12-20T00:14:23;8.00;99.90
27797;DHT22;15177;50.844;4.412;2023-12-20T00:16:51;8.10;99.90
27797;DHT22;15177;50.844;4.412;2023-12-20T00:19:19;8.10;99.90
27797;DHT22;15177;50.844;4.412;2023-12-20T00:21:46;8.00;99.90
27797;DHT22;15177;50.844;4.412;2023-12-20T00:24:12;8.00;99.90
27797;DHT22;15177;50.844;4.412;2023-12-20T00:26:38;8.00;99.90
27797;DHT22;15177;50.844;4.412;2023-12-20T00:29:03;8.00;99.90
27797;DHT22;15177;50.844;4.412;2023-12-20T00:31:31;8.00;99.90
27797;DHT22;15177;50.844;4.412;2023-12-20T00:33:57;8.00;99.90
27797;DHT22;15177;50.844;4.412;2023-12-20T00:36:22;8.00;99.90
27797;DHT22;15177;50.844;4.412;2023-12-20T00:38:51;7.90;99.90
27797;DHT22;15177;50.844;4.412;2023-12-20T00:41:17;7.90;99.90
27797;DHT22;15177;50.844;4.412;2023-12-20T00:43:45;7.70;99.90
27797;DHT22;15177;50.844;4.412;2023-12-20T00:46:15;7.70;99.90
27797;DHT22;15177;50.844;4.412;2023-12-20T00:48:43;7.80;99.90
27797;DHT22;15177;50.844;4.412;2023-12-20T00:51:11;7.80;99.90
27797;DHT22;15177;50.844;4.412;2023-12-20T00:53:36;7.80;99.90
27797;DHT22;15177;50.844;4.412;2023-12-20T00:56:02;7.70;99.90
27797;DHT22;15177;50.844;4.412;2023-12-20T00:58:30;7.70;99.90
27797;DHT22;15177;50.844;4.412;2023-12-20T01:00:58;7.70;99.90
27797;DHT22;15177;50.844;4.412;2023-12-20T01:03:26;7.70;99.90
27797;DHT22;15177;50.844;4.412;2023-12-20T01:05:52;7.70;99.90
27797;DHT22;15177;50.844;4.412;2023-12-20T01:08:17;7.80;99.90
27797;DHT22;15177;50.844;4.412;2023-12-20T01:10:43;7.80;99.90
27797;DHT22;15177;50.844;4.412;2023-12-20T01:13:09;7.80;99.90
27797;DHT22;15177;50.844;4.412;2023-12-20T01:15:34;7.80;99.90
27797;DHT22;15177;50.844;4.412;2023-12-20T01:18:00;7.70;99.90
27797;DHT22;15177;50.844;4.412;2023-12-20T01:20:29;7.60;99.90
27797;DHT22;15177;50.844;4.412;2023-12-20T01:22:54;7.60;99.90
27797;DHT22;15177;50.844;4.412;2023-12-20T01:25:20;7.60;99.90
27797;DHT22;15177;50.844;4.412;2023-12-20T01:27:46;7.60;99.90
27797;DHT22;15177;50.844;4.412;2023-12-20T01:30:15;7.50;99.90
27797;DHT22;15177;50.844;4.412;2023-12-20T01:32:40;7.50;99.90
27797;DHT22;15177;50.844;4.412;2023-12-20T01:35:06;7.60;99.90
27797;DHT22;15177;50.844;4.412;2023-12-20T01:37:32;7.60;99.90
27797;DHT22;15177;50.844;4.412;2023-12-20T01:39:57;7.60;99.90
27797;DHT22;15177;50.844;4.412;2023-12-20T01:42:24;7.50;99.90
27797;DHT22;15177;50.844;4.412;2023-12-20T01:44:52;7.50;99.90
27797;DHT22;15177;50.844;4.412;2023-12-20T01:47:20;7.50;99.90
27797;DHT22;15177;50.844;4.412;2023-12-20T01:49:49;7.40;99.90
27797;DHT22;15177;50.844;4.412;2023-12-20T01:52:18;7.40;99.90
27797;DHT22;15177;50.844;4.412;2023-12-20T01:54:44;7.40;99.90
27797;DHT22;15177;50.844;4.412;2023-12-20T01:57:15;7.30;99.90
27797;DHT22;15177;50.844;4.412;2023-12-20T01:59:43;7.30;99.90
27797;DHT22;15177;50.844;4.412;2023-12-20T02:02:09;7.40;99.90
27797;DHT22;15177;50.844;4.412;2023-12-20T02:04:38;7.40;99.90
27797;DHT22;15177;50.844;4.412;2023-12-20T02:07:04;7.50;99.90
27797;DHT22;15177;50.844;4.412;2023-12-20T02:09:30;7.50;99.90
27797;DHT22;15177;50.844;4.412;2023-12-20T02:11:56;7.50;99.90
27797;DHT22;15177;50.844;4.412;2023-12-20T02:14:21;7.60;99.90
27797;DHT22;15177;50.844;4.412;2023-12-20T02:16:47;7.60;99.90
27797;DHT22;15177;50.844;4.412;2023-12-20T02:19:14;7.50;99.90
27797;DHT22;15177;50.844;4.412;2023-12-20T02:21:40;7.50;99.90
27797;DHT22;15177;50.844;4.412;2023-12-20T02:24:06;7.50;99.90
27797;DHT22;15177;50.844;4.412;2023-12-20T02:26:33;7.40;99.90
27797;DHT22;15177;50.844;4.412;2023-12-20T02:29:02;7.50;99.90
27797;DHT22;15177;50.844;4.412;2023-12-20T02:31:32;7.60;99.90
27797;DHT22;15177;50.844;4.412;2023-12-20T02:33:58;7.60;99.90
27797;DHT22;15177;50.844;4.412;2023-12-20T02:36:26;7.50;99.90
27797;DHT22;15177;50.844;4.412;2023-12-20T02:38:51;7.50;99.90
27797;DHT22;15177;50.844;4.412;2023-12-20T02:41:17;7.50;99.90
27797;DHT22;15177;50.844;4.412;2023-12-20T02:43:43;7.40;99.90
27797;DHT22;15177;50.844;4.412;2023-12-20T02:46:09;7.40;99.90
27797;DHT22;15177;50.844;4.412;2023-12-20T02:48:35;7.40;99.90
27797;DHT22;15177;50.844;4.412;2023-12-20T02:51:00;7.50;99.90
27797;DHT22;15177;50.844;4.412;2023-12-20T02:53:28;7.50;99.90
27797;DHT22;15177;50.844;4.412;2023-12-20T02:55:56;7.50;99.90
27797;DHT22;15177;50.844;4.412;2023-12-20T02:58:21;7.40;99.90
27797;DHT22;15177;50.844;4.412;2023-12-20T03:00:47;7.40;99.90
27797;DHT22;15177;50.844;4.412;2023-12-20T03:03:13;7.40;99.90
27797;DHT22;15177;50.844;4.412;2023-12-20T03:05:38;7.30;99.90
27797;DHT22;15177;50.844;4.412;2023-12-20T03:08:04;7.40;99.90
27797;DHT22;15177;50.844;4.412;2023-12-20T03:10:30;7.40;99.90
27797;DHT22;15177;50.844;4.412;2023-12-20T03:12:57;7.50;99.90
27797;DHT22;15177;50.844;4.412;2023-12-20T03:15:23;7.60;99.90
27797;DHT22;15177;50.844;4.412;2023-12-20T03:17:56;7.60;99.90
27797;DHT22;15177;50.844;4.412;2023-12-20T03:20:22;7.50;99.90
27797;DHT22;15177;50.844;4.412;2023-12-20T03:22:49;7.50;99.90
27797;DHT22;15177;50.844;4.412;2023-12-20T03:25:15;7.60;99.90
27797;DHT22;15177;50.844;4.412;2023-12-20T03:27:41;7.70;99.90
27797;DHT22;15177;50.844;4.412;2023-12-20T03:30:09;7.60;99.90
27797;DHT22;15177;50.844;4.412;2023-12-20T03:32:35;7.50;99.90
27797;DHT22;15177;50.844;4.412;2023-12-20T03:35:00;7.60;99.90
27797;DHT22;15177;50.844;4.412;2023-12-20T03:37:26;7.50;99.90
27797;DHT22;15177;50.844;4.412;2023-12-20T03:39:52;7.60;99.90
27797;DHT22;15177;50.844;4.412;2023-12-20T03:42:17;7.60;99.90
27797;DHT22;15177;50.844;4.412;2023-12-20T03:44:45;7.60;99.90
27797;DHT22;15177;50.844;4.412;2023-12-20T03:47:13;7.60;99.90
27797;DHT22;15177;50.844;4.412;2023-12-20T03:49:39;7.70;99.90
27797;DHT22;15177;50.844;4.412;2023-12-20T03:52:05;7.70;99.90
27797;DHT22;15177;50.844;4.412;2023-12-20T03:54:34;7.50;99.90
27797;DHT22;15177;50.844;4.412;2023-12-20T03:57:03;7.50;99.90
27797;DHT22;15177;50.844;4.412;2023-12-20T03:59:28;7.50;99.90
27797;DHT22;15177;50.844;4.412;2023-12-20T04:01:54;7.60;99.90
27797;DHT22;15177;50.844;4.412;2023-12-20T04:04:20;7.60;99.90
27797;DHT22;15177;50.844;4.412;2023-12-20T04:06:45;7.80;99.90
27797;DHT22;15177;50.844;4.412;2023-12-20T04:09:13;7.80;99.90
27797;DHT22;15177;50.844;4.412;2023-12-20T04:11:38;7.80;99.90
27797;DHT22;15177;50.844;4.412;2023-12-20T04:14:04;7.80;99.90
27797;DHT22;15177;50.844;4.412;2023-12-20T04:16:33;7.70;99.90
27797;DHT22;15177;50.844;4.412;2023-12-20T04:18:58;7.70;99.90
27797;DHT22;15177;50.844;4.412;2023-12-20T04:21:24;7.70;99.90
27797;DHT22;15177;50.844;4.412;2023-12-20T04:23:52;7.70;99.90
27797;DHT22;15177;50.844;4.412;2023-12-20T04:26:20;7.70;99.90
27797;DHT22;15177;50.844;4.412;2023-12-20T04:28:50;7.70;99.90
27797;DHT22;15177;50.844;4.412;2023-12-20T04:31:15;7.70;99.90
27797;DHT22;15177;50.844;4.412;2023-12-20T04:33:41;7.60;99.90
27797;DHT22;15177;50.844;4.412;2023-12-20T04:36:07;7.70;99.90
27797;DHT22;15177;50.844;4.412;2023-12-20T04:38:34;7.70;99.90
27797;DHT22;15177;50.844;4.412;2023-12-20T04:41:00;7.60;99.90
27797;DHT22;15177;50.844;4.412;2023-12-20T04:43:25;7.50;99.90
27797;DHT22;15177;50.844;4.412;2023-12-20T04:45:51;7.60;99.90
27797;DHT22;15177;50.844;4.412;2023-12-20T04:48:17;7.50;99.90
27797;DHT22;15177;50.844;4.412;2023-12-20T04:50:45;7.50;99.90
27797;DHT22;15177;50.844;4.412;2023-12-20T04:53:12;7.50;99.90
27797;DHT22;15177;50.844;4.412;2023-12-20T04:55:41;7.60;99.90
27797;DHT22;15177;50.844;4.412;2023-12-20T04:58:06;7.50;99.90
27797;DHT22;15177;50.844;4.412;2023-12-20T05:00:34;7.50;99.90
27797;DHT22;15177;50.844;4.412;2023-12-20T05:03:00;7.50;99.90
27797;DHT22;15177;50.844;4.412;2023-12-20T05:05:27;7.70;99.90
27797;DHT22;15177;50.844;4.412;2023-12-20T05:07:53;7.60;99.90
27797;DHT22;15177;50.844;4.412;2023-12-20T05:10:19;7.70;99.90
27797;DHT22;15177;50.844;4.412;2023-12-20T05:12:44;7.70;99.90
27797;DHT22;15177;50.844;4.412;2023-12-20T05:15:10;7.70;99.90
27797;DHT22;15177;50.844;4.412;2023-12-20T05:17:35;7.70;99.90
27797;DHT22;15177;50.844;4.412;2023-12-20T05:20:01;7.60;99.90
27797;DHT22;15177;50.844;4.412;2023-12-20T05:22:29;7.60;99.90
27797;DHT22;15177;50.844;4.412;2023-12-20T05:24:55;7.60;99.90
27797;DHT22;15177;50.844;4.412;2023-12-20T05:27:21;7.60;99.90
27797;DHT22;15177;50.844;4.412;2023-12-20T05:29:46;7.50;99.90
27797;DHT22;15177;50.844;4.412;2023-12-20T05:32:12;7.40;99.90
27797;DHT22;15177;50.844;4.412;2023-12-20T05:34:37;7.40;99.90
27797;DHT22;15177;50.844;4.412;2023-12-20T05:37:03;7.40;99.90
27797;DHT22;15177;50.844;4.412;2023-12-20T05:39:29;7.40;99.90
27797;DHT22;15177;50.844;4.412;2023-12-20T05:41:56;7.40;99.90
27797;DHT22;15177;50.844;4.412;2023-12-20T05:44:25;7.40;99.90
27797;DHT22;15177;50.844;4.412;2023-12-20T05:46:50;7.40;99.90
27797;DHT22;15177;50.844;4.412;2023-12-20T05:49:19;7.30;99.90
27797;DHT22;15177;50.844;4.412;2023-12-20T05:51:44;7.30;99.90
27797;DHT22;15177;50.844;4.412;2023-12-20T05:54:15;7.30;99.90
27797;DHT22;15177;50.844;4.412;2023-12-20T05:56:43;7.40;99.90
27797;DHT22;15177;50.844;4.412;2023-12-20T05:59:08;7.20;99.90
27797;DHT22;15177;50.844;4.412;2023-12-20T06:01:34;7.20;99.90
27797;DHT22;15177;50.844;4.412;2023-12-20T06:04:00;7.20;99.90
27797;DHT22;15177;50.844;4.412;2023-12-20T06:06:26;7.20;99.90
27797;DHT22;15177;50.844;4.412;2023-12-20T06:08:51;7.20;99.90
27797;DHT22;15177;50.844;4.412;2023-12-20T06:11:17;7.10;99.90
27797;DHT22;15177;50.844;4.412;2023-12-20T06:13:43;7.10;99.90
27797;DHT22;15177;50.844;4.412;2023-12-20T06:16:08;7.10;99.90
27797;DHT22;15177;50.844;4.412;2023-12-20T06:18:36;7.20;99.90
27797;DHT22;15177;50.844;4.412;2023-12-20T06:21:02;7.20;99.90
27797;DHT22;15177;50.844;4.412;2023-12-20T06:23:28;7.20;99.90
27797;DHT22;15177;50.844;4.412;2023-12-20T06:25:54;7.30;99.90
27797;DHT22;15177;50.844;4.412;2023-12-20T06:28:19;7.20;99.90
27797;DHT22;15177;50.844;4.412;2023-12-20T06:30:45;7.10;99.90
27797;DHT22;15177;50.844;4.412;2023-12-20T06:33:15;7.20;99.90
27797;DHT22;15177;50.844;4.412;2023-12-20T06:35:41;7.20;99.90
27797;DHT22;15177;50.844;4.412;2023-12-20T06:38:06;7.20;99.90
27797;DHT22;15177;50.844;4.412;2023-12-20T06:40:32;7.20;99.90
27797;DHT22;15177;50.844;4.412;2023-12-20T06:42:57;7.10;99.90
27797;DHT22;15177;50.844;4.412;2023-12-20T06:45:24;7.10;99.90
27797;DHT22;15177;50.844;4.412;2023-12-20T06:47:50;7.10;99.90
27797;DHT22;15177;50.844;4.412;2023-12-20T06:50:16;7.10;99.90
27797;DHT22;15177;50.844;4.412;2023-12-20T06:52:44;7.20;99.90
27797;DHT22;15177;50.844;4.412;2023-12-20T06:55:09;7.30;99.90
27797;DHT22;15177;50.844;4.412;2023-12-20T06:57:35;7.20;99.90
27797;DHT22;15177;50.844;4.412;2023-12-20T07:00:02;7.20;99.90
27797;DHT22;15177;50.844;4.412;2023-12-20T07:02:28;7.20;99.90
27797;DHT22;15177;50.844;4.412;2023-12-20T07:04:56;7.20;99.90
27797;DHT22;15177;50.844;4.412;2023-12-20T07:07:24;7.00;99.90
27797;DHT22;15177;50.844;4.412;2023-12-20T07:09:50;7.00;99.90
27797;DHT22;15177;50.844;4.412;2023-12-20T07:12:15;6.90;99.90
27797;DHT22;15177;50.844;4.412;2023-12-20T07:14:41;6.90;99.90
27797;DHT22;15177;50.844;4.412;2023-12-20T07:17:07;6.90;99.90
27797;DHT22;15177;50.844;4.412;2023-12-20T07:19:37;6.90;99.90
27797;DHT22;15177;50.844;4.412;2023-12-20T07:22:04;6.90;99.90
27797;DHT22;15177;50.844;4.412;2023-12-20T07:24:30;6.90;99.90
27797;DHT22;15177;50.844;4.412;2023-12-20T07:26:59;6.90;99.90
27797;DHT22;15177;50.844;4.412;2023-12-20T07:29:25;6.90;99.90
27797;DHT22;15177;50.844;4.412;2023-12-20T07:31:55;6.90;99.90
27797;DHT22;15177;50.844;4.412;2023-12-20T07:34:21;6.90;99.90
27797;DHT22;15177;50.844;4.412;2023-12-20T07:37:08;7.00;99.90
27797;DHT22;15177;50.844;4.412;2023-12-20T07:39:57;6.90;99.90
27797;DHT22;15177;50.844;4.412;2023-12-20T07:43:00;6.80;99.90
27797;DHT22;15177;50.844;4.412;2023-12-20T07:45:37;6.70;99.90
27797;DHT22;15177;50.844;4.412;2023-12-20T07:48:07;6.70;99.90
27797;DHT22;15177;50.844;4.412;2023-12-20T07:50:44;6.70;99.90
27797;DHT22;15177;50.844;4.412;2023-12-20T07:53:13;6.60;99.90
27797;DHT22;15177;50.844;4.412;2023-12-20T07:55:39;6.60;99.90
27797;DHT22;15177;50.844;4.412;2023-12-20T07:58:05;6.70;99.90
27797;DHT22;15177;50.844;4.412;2023-12-20T08:00:33;6.70;99.90
27797;DHT22;15177;50.844;4.412;2023-12-20T08:02:59;6.60;99.90
27797;DHT22;15177;50.844;4.412;2023-12-20T08:05:25;6.60;99.90
27797;DHT22;15177;50.844;4.412;2023-12-20T08:07:50;6.60;99.90
27797;DHT22;15177;50.844;4.412;2023-12-20T08:10:16;6.60;99.90
27797;DHT22;15177;50.844;4.412;2023-12-20T08:12:47;6.60;99.90
27797;DHT22;15177;50.844;4.412;2023-12-20T08:15:13;6.60;99.90
27797;DHT22;15177;50.844;4.412;2023-12-20T08:17:39;6.60;99.90
27797;DHT22;15177;50.844;4.412;2023-12-20T08:20:10;6.70;99.90
27797;DHT22;15177;50.844;4.412;2023-12-20T08:22:42;6.70;99.90
27797;DHT22;15177;50.844;4.412;2023-12-20T08:25:08;6.80;99.90
27797;DHT22;15177;50.844;4.412;2023-12-20T08:27:39;6.80;99.90
27797;DHT22;15177;50.844;4.412;2023-12-20T08:30:09;7.00;99.90
27797;DHT22;15177;50.844;4.412;2023-12-20T08:32:35;7.00;99.90
27797;DHT22;15177;50.844;4.412;2023-12-20T08:35:04;7.00;99.90
27797;DHT22;15177;50.844;4.412;2023-12-20T08:37:34;7.10;99.90
27797;DHT22;15177;50.844;4.412;2023-12-20T08:40:02;7.20;99.90
27797;DHT22;15177;50.844;4.412;2023-12-20T08:42:28;7.20;99.90
27797;DHT22;15177;50.844;4.412;2023-12-20T08:44:57;7.20;99.90
27797;DHT22;15177;50.844;4.412;2023-12-20T08:47:24;7.30;99.90
27797;DHT22;15177;50.844;4.412;2023-12-20T08:49:52;7.30;99.90
27797;DHT22;15177;50.844;4.412;2023-12-20T08:52:22;7.30;99.90
27797;DHT22;15177;50.844;4.412;2023-12-20T08:54:50;7.30;99.90
27797;DHT22;15177;50.844;4.412;2023-12-20T08:57:20;7.30;99.90
27797;DHT22;15177;50.844;4.412;2023-12-20T08:59:49;7.40;99.90
27797;DHT22;15177;50.844;4.412;2023-12-20T09:02:16;7.40;99.90
27797;DHT22;15177;50.844;4.412;2023-12-20T09:04:45;7.30;99.90
27797;DHT22;15177;50.844;4.412;2023-12-20T09:07:26;7.40;99.90
27797;DHT22;15177;50.844;4.412;2023-12-20T09:09:55;7.40;99.90
27797;DHT22;15177;50.844;4.412;2023-12-20T09:12:24;7.40;99.90
27797;DHT22;15177;50.844;4.412;2023-12-20T09:14:51;7.50;99.90
27797;DHT22;15177;50.844;4.412;2023-12-20T09:17:18;7.50;99.90
27797;DHT22;15177;50.844;4.412;2023-12-20T09:19:46;7.50;99.90
27797;DHT22;15177;50.844;4.412;2023-12-20T09:22:12;7.50;99.90
27797;DHT22;15177;50.844;4.412;2023-12-20T09:24:41;7.40;99.90
27797;DHT22;15177;50.844;4.412;2023-12-20T09:27:07;7.50;99.90
27797;DHT22;15177;50.844;4.412;2023-12-20T09:29:33;7.50;99.90
27797;DHT22;15177;50.844;4.412;2023-12-20T09:31:59;7.60;99.90
27797;DHT22;15177;50.844;4.412;2023-12-20T09:34:24;7.60;99.90
27797;DHT22;15177;50.844;4.412;2023-12-20T09:36:51;7.70;99.90
27797;DHT22;15177;50.844;4.412;2023-12-20T09:39:18;7.60;99.90
27797;DHT22;15177;50.844;4.412;2023-12-20T09:42:06;7.80;99.90
27797;DHT22;15177;50.844;4.412;2023-12-20T09:44:34;7.80;99.90
27797;DHT22;15177;50.844;4.412;2023-12-20T09:47:06;8.00;99.90
27797;DHT22;15177;50.844;4.412;2023-12-20T09:49:33;8.10;99.90
27797;DHT22;15177;50.844;4.412;2023-12-20T09:52:03;8.20;99.90
27797;DHT22;15177;50.844;4.412;2023-12-20T09:54:32;8.30;99.90
27797;DHT22;15177;50.844;4.412;2023-12-20T09:57:01;8.50;99.90
27797;DHT22;15177;50.844;4.412;2023-12-20T09:59:45;8.70;99.90
27797;DHT22;15177;50.844;4.412;2023-12-20T10:02:13;8.80;99.90
27797;DHT22;15177;50.844;4.412;2023-12-20T10:04:46;8.80;99.90
27797;DHT22;15177;50.844;4.412;2023-12-20T10:07:18;8.80;99.90
27797;DHT22;15177;50.844;4.412;2023-12-20T10:09:54;8.80;99.90
27797;DHT22;15177;50.844;4.412;2023-12-20T10:12:25;8.80;99.90
27797;DHT22;15177;50.844;4.412;2023-12-20T10:14:51;8.70;99.90
27797;DHT22;15177;50.844;4.412;2023-12-20T10:17:16;8.70;99.90
27797;DHT22;15177;50.844;4.412;2023-12-20T10:19:43;8.70;99.90
27797;DHT22;15177;50.844;4.412;2023-12-20T10:22:11;8.80;99.90
27797;DHT22;15177;50.844;4.412;2023-12-20T10:24:37;8.90;99.90
27797;DHT22;15177;50.844;4.412;2023-12-20T10:27:07;9.00;99.90
27797;DHT22;15177;50.844;4.412;2023-12-20T10:29:37;9.10;99.90
27797;DHT22;15177;50.844;4.412;2023-12-20T10:32:23;9.20;99.90
27797;DHT22;15177;50.844;4.412;2023-12-20T10:34:50;9.20;99.90
27797;DHT22;15177;50.844;4.412;2023-12-20T10:37:16;9.20;99.90
27797;DHT22;15177;50.844;4.412;2023-12-20T10:39:43;9.20;99.90
27797;DHT22;15177;50.844;4.412;2023-12-20T10:42:12;9.20;99.90
27797;DHT22;15177;50.844;4.412;2023-12-20T10:44:41;9.10;99.90
27797;DHT22;15177;50.844;4.412;2023-12-20T10:47:11;9.20;99.90
27797;DHT22;15177;50.844;4.412;2023-12-20T10:49:39;9.20;99.90
27797;DHT22;15177;50.844;4.412;2023-12-20T10:52:06;9.30;99.90
27797;DHT22;15177;50.844;4.412;2023-12-20T10:54:33;9.30;99.90
27797;DHT22;15177;50.844;4.412;2023-12-20T10:57:00;9.30;99.90
27797;DHT22;15177;50.844;4.412;2023-12-20T10:59:32;9.40;99.90
27797;DHT22;15177;50.844;4.412;2023-12-20T11:01:59;9.40;99.90
27797;DHT22;15177;50.844;4.412;2023-12-20T11:07:29;9.40;99.90
27797;DHT22;15177;50.844;4.412;2023-12-20T11:10:20;9.30;99.90
27797;DHT22;15177;50.844;4.412;2023-12-20T11:13:23;9.10;99.90
27797;DHT22;15177;50.844;4.412;2023-12-20T11:15:51;9.10;99.90
27797;DHT22;15177;50.844;4.412;2023-12-20T11:18:17;9.20;99.90
27797;DHT22;15177;50.844;4.412;2023-12-20T11:20:43;9.30;99.90
27797;DHT22;15177;50.844;4.412;2023-12-20T11:23:09;9.30;99.90
27797;DHT22;15177;50.844;4.412;2023-12-20T11:25:53;9.30;99.90
27797;DHT22;15177;50.844;4.412;2023-12-20T11:28:26;9.30;99.90
27797;DHT22;15177;50.844;4.412;2023-12-20T11:30:54;9.30;99.90
27797;DHT22;15177;50.844;4.412;2023-12-20T11:33:24;9.40;99.90
27797;DHT22;15177;50.844;4.412;2023-12-20T11:35:51;9.40;99.90
27797;DHT22;15177;50.844;4.412;2023-12-20T11:38:20;9.50;99.90
27797;DHT22;15177;50.844;4.412;2023-12-20T11:40:50;9.50;99.90
27797;DHT22;15177;50.844;4.412;2023-12-20T11:43:36;9.60;99.90
27797;DHT22;15177;50.844;4.412;2023-12-20T11:46:05;9.60;99.90
27797;DHT22;15177;50.844;4.412;2023-12-20T11:48:41;9.60;99.90
27797;DHT22;15177;50.844;4.412;2023-12-20T11:51:18;9.60;99.90
27797;DHT22;15177;50.844;4.412;2023-12-20T11:53:44;9.60;99.90
27797;DHT22;15177;50.844;4.412;2023-12-20T11:56:10;9.60;99.90
27797;DHT22;15177;50.844;4.412;2023-12-20T11:58:37;9.60;99.90
27797;DHT22;15177;50.844;4.412;2023-12-20T12:01:02;9.60;99.90
27797;DHT22;15177;50.844;4.412;2023-12-20T12:03:29;9.70;99.90
27797;DHT22;15177;50.844;4.412;2023-12-20T12:05:56;9.70;99.90
27797;DHT22;15177;50.844;4.412;2023-12-20T12:08:21;9.80;99.90
27797;DHT22;15177;50.844;4.412;2023-12-20T12:10:47;9.80;99.90
27797;DHT22;15177;50.844;4.412;2023-12-20T12:13:13;9.80;99.90
27797;DHT22;15177;50.844;4.412;2023-12-20T12:15:44;9.80;99.90
27797;DHT22;15177;50.844;4.412;2023-12-20T12:18:15;9.80;99.90
27797;DHT22;15177;50.844;4.412;2023-12-20T12:20:41;9.90;99.90
27797;DHT22;15177;50.844;4.412;2023-12-20T12:23:07;9.90;99.90
27797;DHT22;15177;50.844;4.412;2023-12-20T12:25:35;9.90;99.90
27797;DHT22;15177;50.844;4.412;2023-12-20T12:28:02;9.90;99.90
27797;DHT22;15177;50.844;4.412;2023-12-20T12:30:27;9.80;99.90
27797;DHT22;15177;50.844;4.412;2023-12-20T12:32:56;9.80;99.90
27797;DHT22;15177;50.844;4.412;2023-12-20T12:35:23;9.90;99.90
27797;DHT22;15177;50.844;4.412;2023-12-20T12:37:49;9.90;99.90
27797;DHT22;15177;50.844;4.412;2023-12-20T12:40:17;9.80;99.90
27797;DHT22;15177;50.844;4.412;2023-12-20T12:42:44;9.90;99.90
27797;DHT22;15177;50.844;4.412;2023-12-20T12:45:10;9.90;99.90
27797;DHT22;15177;50.844;4.412;2023-12-20T12:47:40;9.80;99.90
27797;DHT22;15177;50.844;4.412;2023-12-20T12:50:06;9.70;99.90
27797;DHT22;15177;50.844;4.412;2023-12-20T12:52:32;9.60;99.90
27797;DHT22;15177;50.844;4.412;2023-12-20T12:54:58;9.70;99.90
27797;DHT22;15177;50.844;4.412;2023-12-20T12:57:23;9.80;99.90
27797;DHT22;15177;50.844;4.412;2023-12-20T12:59:49;9.80;99.90
27797;DHT22;15177;50.844;4.412;2023-12-20T13:02:18;9.90;99.90
27797;DHT22;15177;50.844;4.412;2023-12-20T13:04:46;10.00;99.90
27797;DHT22;15177;50.844;4.412;2023-12-20T13:07:12;10.10;99.90
27797;DHT22;15177;50.844;4.412;2023-12-20T13:09:40;10.10;99.90
27797;DHT22;15177;50.844;4.412;2023-12-20T13:12:06;10.00;99.90
27797;DHT22;15177;50.844;4.412;2023-12-20T13:14:35;10.00;99.90
27797;DHT22;15177;50.844;4.412;2023-12-20T13:17:03;10.00;99.90
27797;DHT22;15177;50.844;4.412;2023-12-20T13:19:29;9.90;99.90
27797;DHT22;15177;50.844;4.412;2023-12-20T13:21:57;9.80;99.90
27797;DHT22;15177;50.844;4.412;2023-12-20T13:24:26;9.90;99.90
27797;DHT22;15177;50.844;4.412;2023-12-20T13:26:52;9.90;99.90
27797;DHT22;15177;50.844;4.412;2023-12-20T13:29:20;9.90;99.90
27797;DHT22;15177;50.844;4.412;2023-12-20T13:31:45;10.00;99.90
27797;DHT22;15177;50.844;4.412;2023-12-20T13:34:13;10.00;99.90
27797;DHT22;15177;50.844;4.412;2023-12-20T13:36:39;10.10;99.90
27797;DHT22;15177;50.844;4.412;2023-12-20T13:39:07;10.10;99.90
27797;DHT22;15177;50.844;4.412;2023-12-20T13:41:35;10.10;99.90
27797;DHT22;15177;50.844;4.412;2023-12-20T13:44:03;10.10;99.90
27797;DHT22;15177;50.844;4.412;2023-12-20T13:46:30;10.10;99.90
27797;DHT22;15177;50.844;4.412;2023-12-20T13:48:56;10.10;99.90
27797;DHT22;15177;50.844;4.412;2023-12-20T13:51:24;10.10;99.90
27797;DHT22;15177;50.844;4.412;2023-12-20T13:53:49;10.10;99.90
27797;DHT22;15177;50.844;4.412;2023-12-20T13:56:15;10.10;99.90
27797;DHT22;15177;50.844;4.412;2023-12-20T13:58:41;10.10;99.90
27797;DHT22;15177;50.844;4.412;2023-12-20T14:01:09;10.00;99.90
27797;DHT22;15177;50.844;4.412;2023-12-20T14:03:36;10.10;99.90
27797;DHT22;15177;50.844;4.412;2023-12-20T14:06:04;10.10;99.90
27797;DHT22;15177;50.844;4.412;2023-12-20T14:08:30;10.10;99.90
27797;DHT22;15177;50.844;4.412;2023-12-20T14:10:55;10.20;99.90
27797;DHT22;15177;50.844;4.412;2023-12-20T14:13:21;10.20;99.90
27797;DHT22;15177;50.844;4.412;2023-12-20T14:15:47;10.30;99.90
27797;DHT22;15177;50.844;4.412;2023-12-20T14:18:14;10.30;99.90
27797;DHT22;15177;50.844;4.412;2023-12-20T14:20:43;10.30;99.90
27797;DHT22;15177;50.844;4.412;2023-12-20T14:23:10;10.30;99.90
27797;DHT22;15177;50.844;4.412;2023-12-20T14:25:35;10.30;99.90
27797;DHT22;15177;50.844;4.412;2023-12-20T14:28:04;10.20;99.90
27797;DHT22;15177;50.844;4.412;2023-12-20T14:30:30;10.20;99.90
27797;DHT22;15177;50.844;4.412;2023-12-20T14:32:58;10.20;99.90
27797;DHT22;15177;50.844;4.412;2023-12-20T14:35:26;10.20;99.90
27797;DHT22;15177;50.844;4.412;2023-12-20T14:37:54;10.20;99.90
27797;DHT22;15177;50.844;4.412;2023-12-20T14:40:22;10.20;99.90
27797;DHT22;15177;50.844;4.412;2023-12-20T14:42:50;10.20;99.90
27797;DHT22;15177;50.844;4.412;2023-12-20T14:45:16;10.20;99.90
27797;DHT22;15177;50.844;4.412;2023-12-20T14:47:42;10.30;99.90
27797;DHT22;15177;50.844;4.412;2023-12-20T14:50:09;10.20;99.90
27797;DHT22;15177;50.844;4.412;2023-12-20T14:52:42;10.30;99.90
27797;DHT22;15177;50.844;4.412;2023-12-20T14:55:11;10.30;99.90
27797;DHT22;15177;50.844;4.412;2023-12-20T14:57:41;10.30;99.90
27797;DHT22;15177;50.844;4.412;2023-12-20T15:00:07;10.30;99.90
27797;DHT22;15177;50.844;4.412;2023-12-20T15:02:33;10.30;99.90
27797;DHT22;15177;50.844;4.412;2023-12-20T15:05:01;10.30;99.90
27797;DHT22;15177;50.844;4.412;2023-12-20T15:07:29;10.30;99.90
27797;DHT22;15177;50.844;4.412;2023-12-20T15:09:55;10.30;99.90
27797;DHT22;15177;50.844;4.412;2023-12-20T15:12:23;10.30;99.90
27797;DHT22;15177;50.844;4.412;2023-12-20T15:14:49;10.40;99.90
27797;DHT22;15177;50.844;4.412;2023-12-20T15:17:17;10.40;99.90
27797;DHT22;15177;50.844;4.412;2023-12-20T15:19:45;10.40;99.90
27797;DHT22;15177;50.844;4.412;2023-12-20T15:22:15;10.50;99.90
27797;DHT22;15177;50.844;4.412;2023-12-20T15:24:44;10.50;99.90
27797;DHT22;15177;50.844;4.412;2023-12-20T15:27:11;10.30;99.90
27797;DHT22;15177;50.844;4.412;2023-12-20T15:29:40;10.40;99.90
27797;DHT22;15177;50.844;4.412;2023-12-20T15:32:05;10.40;99.90
27797;DHT22;15177;50.844;4.412;2023-12-20T15:34:31;10.50;99.90
27797;DHT22;15177;50.844;4.412;2023-12-20T15:36:59;10.50;99.90
27797;DHT22;15177;50.844;4.412;2023-12-20T15:39:25;10.50;99.90
27797;DHT22;15177;50.844;4.412;2023-12-20T15:41:54;10.40;99.90
27797;DHT22;15177;50.844;4.412;2023-12-20T15:44:19;10.40;99.90
27797;DHT22;15177;50.844;4.412;2023-12-20T15:46:45;10.40;99.90
27797;DHT22;15177;50.844;4.412;2023-12-20T15:49:11;10.40;99.90